Time;durP1;ratioP1;P1;durP2;ratioP2;P2;SDS_P1;SDS_P2;PMS_P1;PMS_P2;Temp;Humidity;BMP_temperature;BMP_pressure;BME280_temperature;BME280_humidity;BME280_pressure;Samples;Min_cycle;Max_cycle;Signal;HPM_P1;HPM_P2
2021/10/16 00:02:16;;;;;;;21.10;15.70;;;;;;;14.26;49.62;100841.52;117525;1185;21856;-88
2021/10/16 00:04:44;;;;;;;18.80;14.80;;;;;;;14.34;49.46;100841.17;117646;1182;21856;-90
2021/10/16 00:07:13;;;;;;;18.00;15.50;;;;;;;14.44;49.30;100832.13;117523;1186;23560;-89
2021/10/16 00:09:42;;;;;;;21.50;16.30;;;;;;;14.46;49.25;100824.69;117674;1185;23544;-88
2021/10/16 00:12:10;;;;;;;23.00;16.10;;;;;;;14.43;49.31;100820.69;117614;1182;22902;-88
2021/10/16 00:14:41;;;;;;;;;;;;;;;14.47;49.21;100816.19;117652;1179;23522;-88
2021/10/16 00:17:09;;;;;;;19.90;14.60;;;;;;;14.40;49.31;100813.86;117630;1183;22907;-88
2021/10/16 00:19:38;;;;;;;19.20;14.70;;;;;;;14.40;49.26;100813.52;117606;1185;23541;-88
2021/10/16 00:22:07;;;;;;;17.60;14.80;;;;;;;14.48;49.10;100810.17;117580;1185;22909;-88
2021/10/16 00:24:35;;;;;;;18.80;14.90;;;;;;;14.45;49.20;100812.52;117613;1185;22216;-89
2021/10/16 00:27:04;;;;;;;20.00;15.20;;;;;;;14.31;49.32;100809.27;117378;1188;22621;-89
2021/10/16 00:29:32;;;;;;;18.30;15.70;;;;;;;14.18;49.61;100812.01;117539;1186;21860;-89
2021/10/16 00:32:00;;;;;;;22.20;16.90;;;;;;;14.14;49.79;100811.04;117499;1183;21871;-88
2021/10/16 00:34:28;;;;;;;19.40;15.00;;;;;;;14.26;49.49;100810.45;117551;1182;23541;-88
2021/10/16 00:36:56;;;;;;;21.20;15.90;;;;;;;14.34;49.41;100802.88;117574;1186;21858;-88
2021/10/16 00:39:25;;;;;;;22.30;15.70;;;;;;;14.34;49.29;100801.80;117575;1182;22172;-87
2021/10/16 00:41:53;;;;;;;22.40;16.20;;;;;;;14.34;49.31;100798.28;117286;1184;22731;-88
2021/10/16 00:44:23;;;;;;;23.80;17.60;;;;;;;14.34;49.46;100792.11;117306;1186;21913;-89
2021/10/16 00:46:53;;;;;;;26.70;17.00;;;;;;;14.33;49.30;100784.36;117515;1186;21871;-88
2021/10/16 00:49:22;;;;;;;20.30;16.80;;;;;;;14.31;49.39;100785.27;117542;1186;21861;-88
2021/10/16 00:51:50;;;;;;;21.30;16.30;;;;;;;14.31;49.38;100785.30;117284;1187;23928;-88
2021/10/16 00:54:22;;;;;;;22.90;16.80;;;;;;;14.28;49.32;100780.93;117467;1186;21867;-88
2021/10/16 00:56:50;;;;;;;24.00;18.40;;;;;;;14.28;49.35;100774.05;117370;1186;22151;-88
2021/10/16 00:59:19;;;;;;;24.60;18.00;;;;;;;14.27;49.43;100770.53;117447;1183;21925;-88
2021/10/16 01:01:47;;;;;;;21.20;17.30;;;;;;;14.28;49.43;100769.82;117694;1182;23549;-87
2021/10/16 01:04:17;;;;;;;19.80;17.10;;;;;;;14.28;49.35;100771.93;117496;1186;21870;-87
2021/10/16 01:06:46;;;;;;;20.60;17.50;;;;;;;14.29;49.40;100771.04;117317;1178;23560;-88
2021/10/16 01:09:14;;;;;;;20.50;16.20;;;;;;;14.29;49.33;100774.91;117582;1178;23461;-88
2021/10/16 01:11:52;;;;;;;24.80;17.70;;;;;;;14.29;49.49;100770.49;117656;1185;21917;-87
2021/10/16 01:14:21;;;;;;;21.40;17.70;;;;;;;14.30;49.39;100766.26;117721;1182;22964;-87
2021/10/16 01:16:51;;;;;;;22.40;17.10;;;;;;;14.29;49.42;100763.09;117630;1185;21870;-88
2021/10/16 01:19:21;;;;;;;23.70;16.50;;;;;;;14.28;49.43;100765.05;117507;1183;22976;-85
2021/10/16 01:21:51;;;;;;;23.00;18.50;;;;;;;14.27;49.36;100769.65;117567;1185;23583;-88
2021/10/16 01:24:19;;;;;;;22.90;17.10;;;;;;;14.26;49.47;100771.27;117340;1187;23728;-87
2021/10/16 01:26:49;;;;;;;22.30;17.20;;;;;;;14.24;49.38;100772.38;117365;1184;23462;-86
2021/10/16 01:29:24;;;;;;;21.10;17.30;;;;;;;14.21;49.42;100773.48;117586;1182;22283;-86
2021/10/16 01:31:52;;;;;;;21.80;17.90;;;;;;;14.18;49.48;100774.07;117336;1186;21861;-86
2021/10/16 01:34:20;;;;;;;20.90;17.10;;;;;;;14.16;49.38;100770.59;117558;1182;21911;-86
2021/10/16 01:36:50;;;;;;;19.00;16.90;;;;;;;14.14;49.44;100771.68;117563;1183;22332;-86
2021/10/16 01:39:18;;;;;;;22.60;17.80;;;;;;;14.11;49.38;100768.23;117283;1186;23461;-86
2021/10/16 01:41:49;;;;;;;23.30;17.40;;;;;;;14.09;49.45;100763.67;117575;1186;23541;-85
2021/10/16 01:44:17;;;;;;;23.70;17.50;;;;;;;14.09;49.55;100759.98;117434;1187;21874;-87
2021/10/16 01:46:46;;;;;;;23.90;17.60;;;;;;;14.10;49.51;100760.14;117428;1184;23583;-86
2021/10/16 01:49:16;;;;;;;22.20;17.00;;;;;;;14.11;49.43;100763.30;117672;1182;22310;-86
2021/10/16 01:51:45;;;;;;;21.50;17.30;;;;;;;14.11;49.55;100762.58;117660;1179;21858;-88
2021/10/16 01:54:14;;;;;;;22.00;17.50;;;;;;;14.13;49.50;100767.30;117593;1186;21864;-86
2021/10/16 01:56:43;;;;;;;24.20;17.60;;;;;;;14.13;49.56;100765.55;117571;1182;23806;-86
2021/10/16 01:59:21;;;;;;;22.80;18.30;;;;;;;14.12;49.50;100766.44;117469;1185;22381;-86
2021/10/16 02:02:05;;;;;;;20.70;16.70;;;;;;;14.13;49.62;100757.76;117558;1185;21957;-86
2021/10/16 02:04:33;;;;;;;23.40;17.40;;;;;;;14.14;49.56;100748.91;117550;1182;23535;-86
2021/10/16 02:07:02;;;;;;;21.40;17.70;;;;;;;14.14;49.62;100742.57;117449;1176;22313;-87
2021/10/16 02:09:30;;;;;;;20.90;16.20;;;;;;;14.15;49.56;100737.42;117594;1185;23542;-87
2021/10/16 02:11:59;;;;;;;22.50;16.70;;;;;;;14.15;49.66;100732.14;117601;1178;21857;-87
2021/10/16 02:14:27;;;;;;;23.60;16.60;;;;;;;14.15;49.54;100728.96;117561;1179;21871;-87
2021/10/16 02:16:55;;;;;;;23.90;17.20;;;;;;;14.16;49.60;100725.23;117485;1186;22831;-87
2021/10/16 02:19:23;;;;;;;22.30;17.10;;;;;;;14.15;49.62;100720.66;117442;1186;21861;-87
2021/10/16 02:21:51;;;;;;;20.90;17.20;;;;;;;14.15;49.63;100719.95;117566;1186;23462;-87
2021/10/16 02:24:19;;;;;;;24.50;17.40;;;;;;;14.15;49.67;100719.42;117261;1187;21857;-87
2021/10/16 02:26:48;;;;;;;23.70;17.80;;;;;;;14.14;49.62;100719.10;117354;1182;22912;-88
2021/10/16 02:29:16;;;;;;;22.20;17.60;;;;;;;14.12;49.59;100718.45;117419;1185;22915;-88
2021/10/16 02:31:44;;;;;;;24.10;16.50;;;;;;;14.12;49.51;100718.45;117612;1182;21856;-87
2021/10/16 02:34:12;;;;;;;20.00;16.50;;;;;;;14.10;49.66;100718.48;117415;1185;22332;-85
2021/10/16 02:36:40;;;;;;;22.20;17.20;;;;;;;14.09;49.61;100716.74;117575;1185;21856;-85
2021/10/16 02:39:08;;;;;;;23.60;16.90;;;;;;;14.09;49.61;100716.05;117574;1182;23550;-88
2021/10/16 02:41:36;;;;;;;24.10;18.00;;;;;;;14.08;49.69;100713.23;117539;1185;21858;-86
2021/10/16 02:44:05;;;;;;;27.20;17.70;;;;;;;14.08;49.78;100712.01;117537;1185;21855;-85
2021/10/16 02:46:33;;;;;;;26.40;18.90;;;;;;;14.08;49.67;100707.94;117370;1185;23435;-84
2021/10/16 02:49:15;;;;;;;24.70;18.50;;;;;;;14.10;49.68;100708.27;117588;1179;23532;-84
2021/10/16 02:51:44;;;;;;;26.40;19.20;;;;;;;14.11;49.70;100705.95;117533;1182;21908;-84
2021/10/16 02:54:12;;;;;;;23.10;18.60;;;;;;;14.11;49.68;100701.35;117647;1186;21858;-84
2021/10/16 02:56:40;;;;;;;23.50;17.80;;;;;;;14.12;49.79;100698.86;117632;1182;22910;-85
2021/10/16 02:59:08;;;;;;;21.90;18.10;;;;;;;14.12;49.70;100701.15;117621;1185;21860;-84
2021/10/16 03:01:36;;;;;;;22.70;17.50;;;;;;;14.12;49.73;100699.91;117685;1185;21855;-85
2021/10/16 03:04:04;;;;;;;22.00;16.90;;;;;;;14.12;49.79;100698.50;117592;1182;22618;-83
2021/10/16 03:06:33;;;;;;;24.90;17.90;;;;;;;14.12;49.74;100692.51;117624;1185;23630;-85
2021/10/16 03:09:01;;;;;;;23.50;17.70;;;;;;;14.11;49.59;100692.35;117577;1185;23551;-85
2021/10/16 03:11:29;;;;;;;25.90;18.10;;;;;;;14.09;49.66;100690.63;117559;1180;22910;-84
2021/10/16 03:13:58;;;;;;;23.40;17.80;;;;;;;14.08;49.73;100691.00;117566;1185;21899;-84
2021/10/16 03:16:26;;;;;;;22.00;17.40;;;;;;;14.07;49.61;100688.73;117560;1182;22194;-84
2021/10/16 03:18:55;;;;;;;25.60;17.60;;;;;;;14.07;49.65;100691.02;117691;1185;22814;-84
2021/10/16 03:21:23;;;;;;;22.20;16.30;;;;;;;14.07;49.80;100691.38;117692;1182;22938;-84
2021/10/16 03:23:51;;;;;;;21.90;16.30;;;;;;;14.06;49.63;100690.52;117637;1179;22623;-84
2021/10/16 03:26:19;;;;;;;22.50;16.50;;;;;;;14.04;49.82;100691.27;117552;1182;21866;-84
2021/10/16 03:28:47;;;;;;;29.10;16.90;;;;;;;14.04;49.75;100694.98;117563;1186;23461;-84
2021/10/16 03:31:16;;;;;;;23.30;16.50;;;;;;;14.04;49.73;100695.86;117601;1178;23540;-84
2021/10/16 03:33:44;;;;;;;21.10;16.40;;;;;;;14.05;49.68;100695.13;117308;1187;23459;-84
2021/10/16 03:36:12;;;;;;;22.50;16.50;;;;;;;14.05;49.71;100693.72;117573;1185;21849;-85
2021/10/16 03:38:41;;;;;;;21.10;16.40;;;;;;;14.03;49.75;100686.17;117595;1182;23541;-84
2021/10/16 03:41:09;;;;;;;21.60;15.90;;;;;;;14.04;49.89;100678.21;117630;1182;23632;-84
2021/10/16 03:43:37;;;;;;;21.00;15.90;;;;;;;14.02;49.69;100673.49;117687;1183;21858;-84
2021/10/16 03:46:05;;;;;;;24.10;16.30;;;;;;;13.99;49.70;100671.61;117602;1185;22983;-84
2021/10/16 03:48:33;;;;;;;23.00;16.80;;;;;;;13.98;49.65;100670.55;117349;1184;22662;-86
2021/10/16 03:51:01;;;;;;;20.70;16.40;;;;;;;13.97;49.75;100667.24;117670;1182;23384;-83
2021/10/16 03:53:30;;;;;;;24.40;16.40;;;;;;;13.96;49.66;100664.62;117668;1186;23542;-86
2021/10/16 03:55:58;;;;;;;20.10;15.60;;;;;;;13.95;49.77;100660.92;117662;1182;23540;-88
2021/10/16 03:58:27;;;;;;;20.30;15.50;;;;;;;13.95;49.76;100662.35;117637;1182;23677;-89
2021/10/16 04:01:00;;;;;;;22.30;15.70;;;;;;;13.95;49.80;100664.97;117408;1186;21873;-88
2021/10/16 04:03:28;;;;;;;22.70;15.90;;;;;;;13.97;49.76;100665.30;117563;1182;22837;-88
2021/10/16 04:05:56;;;;;;;23.10;15.20;;;;;;;13.97;49.74;100667.41;117573;1185;21878;-89
2021/10/16 04:08:24;;;;;;;21.90;15.80;;;;;;;13.99;49.67;100670.91;117440;1182;23987;-88
2021/10/16 04:10:53;;;;;;;21.20;16.10;;;;;;;13.98;49.60;100673.56;117603;1182;21872;-88
2021/10/16 04:13:21;;;;;;;22.40;16.10;;;;;;;13.97;49.71;100675.35;117664;1182;23541;-87
2021/10/16 04:15:51;;;;;;;23.50;15.70;;;;;;;14.03;49.63;100669.75;117603;1184;23554;-88
2021/10/16 04:18:19;;;;;;;19.90;15.50;;;;;;;14.00;49.66;100667.19;117603;1182;21857;-86
2021/10/16 04:20:47;;;;;;;25.30;15.20;;;;;;;14.01;49.82;100666.98;117654;1185;21861;-85
2021/10/16 04:23:15;;;;;;;20.60;15.40;;;;;;;14.03;49.81;100661.11;117724;1182;23572;-85
2021/10/16 04:25:44;;;;;;;25.50;15.20;;;;;;;14.05;49.79;100659.31;117663;1185;21868;-85
2021/10/16 04:28:12;;;;;;;29.00;15.90;;;;;;;14.07;49.89;100661.02;117618;1186;21898;-85
2021/10/16 04:30:40;;;;;;;24.20;14.90;;;;;;;14.09;49.95;100658.52;117625;1183;21960;-84
2021/10/16 04:33:08;;;;;;;23.40;16.50;;;;;;;14.10;49.70;100661.48;117559;1182;22636;-83
2021/10/16 04:35:38;;;;;;;26.80;15.70;;;;;;;14.11;49.87;100660.06;117676;1179;21858;-84
2021/10/16 04:38:07;;;;;;;25.60;16.00;;;;;;;14.11;49.80;100656.17;117482;1187;23586;-86
2021/10/16 04:40:36;;;;;;;21.50;15.70;;;;;;;14.10;49.85;100655.66;117832;1182;22690;-86
2021/10/16 04:43:06;;;;;;;23.50;14.90;;;;;;;14.09;49.86;100656.39;117492;1187;21855;-85
2021/10/16 04:45:44;;;;;;;26.60;16.00;;;;;;;14.08;49.80;100656.05;117648;1186;21867;-88
2021/10/16 04:48:12;;;;;;;24.10;15.60;;;;;;;14.08;49.87;100658.19;117661;1184;23564;-88
2021/10/16 04:50:40;;;;;;;22.00;15.00;;;;;;;14.11;49.73;100663.94;117581;1185;23538;-87
2021/10/16 04:53:09;;;;;;;20.90;15.70;;;;;;;14.15;49.73;100667.20;117531;1186;21905;-86
2021/10/16 04:55:37;;;;;;;24.80;14.80;;;;;;;14.17;49.72;100669.27;117513;1185;22721;-85
2021/10/16 04:58:05;;;;;;;25.90;16.10;;;;;;;14.19;49.75;100669.58;117536;1185;22743;-86
2021/10/16 05:00:33;;;;;;;18.80;14.20;;;;;;;14.18;49.80;100661.14;117721;1182;23547;-87
2021/10/16 05:03:02;;;;;;;20.90;14.20;;;;;;;14.16;49.75;100660.66;117531;1185;22933;-87
2021/10/16 05:05:30;;;;;;;20.60;14.60;;;;;;;14.13;49.70;100662.31;117637;1185;24240;-87
2021/10/16 05:07:58;;;;;;;22.30;15.00;;;;;;;14.09;49.72;100665.58;117331;1187;21863;-87
2021/10/16 05:10:26;;;;;;;19.20;14.70;;;;;;;14.03;49.75;100666.95;117526;1182;23633;-87
2021/10/16 05:12:55;;;;;;;19.80;14.10;;;;;;;14.03;49.65;100666.23;117594;1180;21870;-87
2021/10/16 05:15:23;;;;;;;19.30;14.30;;;;;;;13.96;49.71;100669.38;117615;1182;23538;-87
2021/10/16 05:17:53;;;;;;;17.60;14.60;;;;;;;13.93;49.79;100668.38;117660;1182;23586;-87
2021/10/16 05:20:21;;;;;;;21.00;13.90;;;;;;;13.93;49.80;100672.27;117612;1182;22928;-86
2021/10/16 05:22:50;;;;;;;18.70;13.50;;;;;;;13.95;49.73;100672.56;117517;1179;23442;-87
2021/10/16 05:25:18;;;;;;;18.80;13.70;;;;;;;14.01;49.78;100671.58;117557;1182;21864;-87
2021/10/16 05:27:49;;;;;;;19.60;13.90;;;;;;;14.02;49.63;100672.42;118189;1185;23806;-87
2021/10/16 05:30:20;;;;;;;;;;;;;;;14.04;49.63;100676.96;117423;1185;22957;-88
2021/10/16 05:32:48;;;;;;;19.60;12.40;;;;;;;14.02;49.76;100676.84;117594;1178;23452;-88
2021/10/16 05:35:16;;;;;;;18.10;13.10;;;;;;;14.01;49.70;100672.97;117545;1186;21857;-87
2021/10/16 05:37:45;;;;;;;19.40;13.90;;;;;;;14.04;49.68;100677.15;117703;1185;22496;-87
2021/10/16 05:40:13;;;;;;;19.10;13.50;;;;;;;14.03;49.78;100679.46;117481;1185;22220;-87
2021/10/16 05:42:41;;;;;;;21.10;13.50;;;;;;;14.04;49.67;100678.03;117626;1186;21881;-87
2021/10/16 05:45:10;;;;;;;19.50;13.10;;;;;;;14.03;49.83;100680.36;117648;1182;22254;-88
2021/10/16 05:47:40;;;;;;;15.80;12.50;;;;;;;14.04;49.84;100682.25;117661;1182;23541;-87
2021/10/16 05:50:09;;;;;;;17.40;12.70;;;;;;;14.06;49.81;100683.82;117632;1183;21847;-87
2021/10/16 05:52:37;;;;;;;16.80;12.40;;;;;;;14.07;49.82;100680.25;117684;1185;22908;-86
2021/10/16 05:55:06;;;;;;;18.40;12.30;;;;;;;14.10;49.95;100682.32;117500;1186;21870;-87
2021/10/16 05:57:35;;;;;;;15.70;12.40;;;;;;;14.13;50.01;100680.14;117486;1182;22583;-87
2021/10/16 06:00:04;;;;;;;18.10;13.30;;;;;;;14.15;49.86;100680.61;117555;1182;23547;-87
2021/10/16 06:02:33;;;;;;;14.90;12.40;;;;;;;14.18;49.94;100686.54;117420;1182;23582;-86
2021/10/16 06:05:01;;;;;;;17.50;12.20;;;;;;;14.21;49.94;100685.08;117480;1186;21866;-86
2021/10/16 06:07:29;;;;;;;19.10;12.30;;;;;;;14.24;49.87;100686.23;117338;1182;21865;-87
2021/10/16 06:09:58;;;;;;;17.90;12.20;;;;;;;14.26;50.03;100681.77;117243;1185;22326;-87
2021/10/16 06:12:26;;;;;;;17.00;11.60;;;;;;;14.28;50.00;100678.20;117595;1184;23576;-87
2021/10/16 06:14:54;;;;;;;15.40;11.50;;;;;;;14.33;50.03;100673.34;117640;1183;21864;-88
2021/10/16 06:17:22;;;;;;;15.70;12.00;;;;;;;14.36;50.06;100672.54;117373;1183;23554;-87
2021/10/16 06:20:06;;;;;;;14.70;11.80;;;;;;;14.43;49.98;100676.10;117517;1179;22464;-88
2021/10/16 06:22:35;;;;;;;14.90;11.50;;;;;;;14.49;50.02;100674.19;117546;1185;21876;-87
2021/10/16 06:25:03;;;;;;;15.10;11.80;;;;;;;14.56;50.08;100675.77;117501;1183;22158;-87
2021/10/16 06:27:32;;;;;;;16.30;11.70;;;;;;;14.64;50.05;100674.17;117381;1185;23566;-87
2021/10/16 06:30:00;;;;;;;17.10;12.40;;;;;;;14.71;50.00;100675.64;117662;1182;21869;-87
2021/10/16 06:32:28;;;;;;;14.70;11.50;;;;;;;14.79;50.10;100677.03;117607;1179;23452;-86
2021/10/16 06:34:56;;;;;;;17.00;11.80;;;;;;;14.89;50.00;100676.06;117679;1185;24000;-87
2021/10/16 06:37:24;;;;;;;17.80;12.10;;;;;;;14.75;50.42;100675.88;117397;1185;22616;-88
2021/10/16 06:39:52;;;;;;;18.20;12.70;;;;;;;14.70;50.63;100677.23;117319;1185;22952;-87
2021/10/16 06:42:20;;;;;;;15.90;12.10;;;;;;;14.73;50.67;100677.90;117469;1186;21856;-88
2021/10/16 06:44:53;;;;;;;17.20;12.60;;;;;;;14.78;50.69;100682.00;117562;1184;23541;-87
2021/10/16 06:47:21;;;;;;;15.50;11.40;;;;;;;14.81;50.63;100680.15;117448;1182;23566;-86
2021/10/16 06:49:49;;;;;;;17.10;12.20;;;;;;;14.83;50.55;100683.45;117523;1178;23462;-87
2021/10/16 06:52:17;;;;;;;16.40;11.90;;;;;;;14.85;50.75;100682.16;117628;1182;22917;-87
2021/10/16 06:54:45;;;;;;;17.00;12.40;;;;;;;14.88;50.70;100682.64;117625;1186;21859;-87
2021/10/16 06:57:13;;;;;;;16.10;12.00;;;;;;;14.90;50.65;100684.36;117641;1178;23483;-87
2021/10/16 06:59:42;;;;;;;16.50;12.00;;;;;;;14.91;50.70;100686.80;117661;1185;22330;-88
2021/10/16 07:02:10;;;;;;;17.90;11.50;;;;;;;14.93;50.69;100683.23;117491;1185;21904;-88
2021/10/16 07:04:38;;;;;;;18.80;12.00;;;;;;;14.95;50.73;100686.16;117406;1186;21869;-87
2021/10/16 07:07:09;;;;;;;15.70;11.40;;;;;;;14.96;50.71;100692.67;117471;1183;23582;-87
2021/10/16 07:09:38;;;;;;;16.20;11.00;;;;;;;14.99;50.65;100689.94;117621;1186;23551;-87
2021/10/16 07:12:09;;;;;;;15.30;11.60;;;;;;;15.00;50.75;100686.58;117603;1177;21870;-87
2021/10/16 07:14:37;;;;;;;15.50;11.80;;;;;;;15.01;50.83;100688.10;117581;1182;23541;-87
2021/10/16 07:17:05;;;;;;;16.20;11.40;;;;;;;15.08;50.74;100689.55;117504;1185;23563;-87
2021/10/16 07:19:34;;;;;;;15.10;11.30;;;;;;;15.11;50.79;100689.64;117656;1182;23541;-87
2021/10/16 07:22:03;;;;;;;15.90;11.50;;;;;;;15.16;50.82;100683.67;117666;1183;23395;-88
2021/10/16 07:24:31;;;;;;;14.80;11.10;;;;;;;15.21;50.82;100685.48;117646;1182;22954;-87
2021/10/16 07:26:59;;;;;;;14.60;10.80;;;;;;;15.25;50.83;100681.67;117617;1186;21857;-87
2021/10/16 07:29:27;;;;;;;22.40;10.80;;;;;;;15.32;50.88;100680.08;117562;1182;23541;-88
2021/10/16 07:31:55;;;;;;;13.30;10.50;;;;;;;15.40;50.84;100683.77;117633;1185;22833;-87
2021/10/16 07:34:23;;;;;;;17.60;11.00;;;;;;;15.46;50.81;100679.14;117543;1186;21863;-87
2021/10/16 07:36:51;;;;;;;17.40;10.80;;;;;;;15.55;50.84;100676.25;117546;1182;21863;-87
2021/10/16 07:39:20;;;;;;;12.90;9.90;;;;;;;15.62;50.85;100671.11;117576;1185;21963;-88
2021/10/16 07:41:48;;;;;;;15.10;10.50;;;;;;;15.69;50.91;100667.36;117567;1186;22912;-87
2021/10/16 07:44:16;;;;;;;15.30;11.00;;;;;;;15.77;50.90;100664.50;117616;1185;22883;-87
2021/10/16 07:46:44;;;;;;;14.80;10.80;;;;;;;15.84;50.89;100666.42;117415;1182;22611;-87
2021/10/16 07:49:12;;;;;;;18.30;11.20;;;;;;;15.91;50.92;100665.35;117439;1185;23459;-86
2021/10/16 07:51:40;;;;;;;13.00;10.00;;;;;;;15.97;50.95;100666.41;117512;1186;21885;-87
2021/10/16 07:54:08;;;;;;;14.10;10.10;;;;;;;16.04;50.96;100666.39;117510;1178;21878;-88
2021/10/16 07:56:37;;;;;;;15.50;10.80;;;;;;;16.14;51.03;100667.84;117476;1186;22326;-87
2021/10/16 07:59:05;;;;;;;13.90;10.60;;;;;;;16.27;51.10;100666.23;117443;1186;23462;-87
2021/10/16 08:01:35;;;;;;;14.30;10.30;;;;;;;16.38;51.06;100662.46;117594;1179;23537;-87
2021/10/16 08:04:03;;;;;;;13.90;10.90;;;;;;;16.44;51.13;100662.65;117633;1185;21864;-88
2021/10/16 08:06:32;;;;;;;17.10;11.00;;;;;;;16.54;51.18;100661.45;117652;1185;21854;-87
2021/10/16 08:09:02;;;;;;;14.50;10.40;;;;;;;16.66;51.25;100661.77;117626;1185;22634;-86
2021/10/16 08:11:30;;;;;;;14.70;10.30;;;;;;;16.81;51.37;100668.18;117496;1187;21862;-87
2021/10/16 08:13:58;;;;;;;14.80;9.80;;;;;;;16.94;51.30;100664.58;117518;1182;22901;-87
2021/10/16 08:16:26;;;;;;;13.10;9.60;;;;;;;17.08;51.23;100660.02;117578;1184;21857;-88
2021/10/16 08:18:54;;;;;;;12.80;9.60;;;;;;;17.20;51.26;100657.67;117652;1186;21859;-87
2021/10/16 08:21:22;;;;;;;13.60;10.30;;;;;;;17.31;51.31;100655.85;117598;1185;22820;-87
2021/10/16 08:23:51;;;;;;;14.00;9.90;;;;;;;17.44;51.40;100658.05;117444;1186;22638;-87
2021/10/16 08:26:19;;;;;;;13.50;9.80;;;;;;;17.54;51.19;100661.22;117572;1182;23553;-88
2021/10/16 08:28:48;;;;;;;12.10;8.40;;;;;;;17.62;51.16;100664.30;117627;1185;21861;-88
2021/10/16 08:31:16;;;;;;;11.60;8.30;;;;;;;17.67;51.00;100663.24;117519;1185;21871;-88
2021/10/16 08:33:45;;;;;;;11.30;8.00;;;;;;;17.73;51.03;100666.94;117317;1188;21865;-87
2021/10/16 08:36:13;;;;;;;11.50;8.30;;;;;;;17.79;51.01;100669.36;117589;1176;23459;-87
2021/10/16 08:38:42;;;;;;;13.50;9.10;;;;;;;17.81;50.94;100671.07;117420;1179;23343;-88
2021/10/16 08:41:12;;;;;;;10.90;8.00;;;;;;;17.81;50.87;100667.87;117351;1183;23589;-87
2021/10/16 08:43:40;;;;;;;11.30;8.60;;;;;;;17.82;50.83;100665.86;117506;1182;22930;-87
2021/10/16 08:46:08;;;;;;;12.60;8.60;;;;;;;17.84;50.76;100665.09;117630;1179;23462;-88
2021/10/16 08:48:39;;;;;;;11.70;7.90;;;;;;;17.88;50.78;100661.02;117490;1186;21861;-88
2021/10/16 08:51:07;;;;;;;11.70;8.30;;;;;;;17.94;50.74;100659.05;117555;1185;21965;-88
2021/10/16 08:53:36;;;;;;;10.50;7.80;;;;;;;17.98;50.79;100656.23;117337;1187;23542;-88
2021/10/16 08:56:04;;;;;;;12.00;8.50;;;;;;;18.07;50.78;100653.76;117650;1182;22901;-88
2021/10/16 08:58:34;;;;;;;12.10;8.20;;;;;;;18.18;50.89;100645.17;117603;1182;23540;-88
2021/10/16 09:01:03;;;;;;;11.70;8.40;;;;;;;18.28;50.88;100643.53;117386;1188;22937;-88
2021/10/16 09:03:40;;;;;;;12.40;8.70;;;;;;;18.38;50.84;100647.20;117549;1179;21870;-89
2021/10/16 09:06:12;;;;;;;10.50;7.90;;;;;;;18.46;50.88;100645.66;117604;1182;23814;-89
2021/10/16 09:08:51;;;;;;;11.70;7.00;;;;;;;18.53;50.78;100645.18;117631;1186;23640;-88
2021/10/16 09:11:35;;;;;;;11.10;6.90;;;;;;;18.63;50.93;100644.59;117610;1186;23008;-87
2021/10/16 09:14:18;;;;;;;11.10;6.50;;;;;;;18.79;50.84;100637.89;117650;1186;23553;-88
2021/10/16 09:16:56;;;;;;;9.50;6.60;;;;;;;18.85;50.73;100642.41;117423;1182;21901;-88
2021/10/16 09:19:29;;;;;;;11.20;6.90;;;;;;;18.93;50.68;100640.66;117596;1179;23436;-88
2021/10/16 09:22:18;;;;;;;12.00;7.50;;;;;;;18.99;50.56;100640.45;117371;1182;21860;-88
2021/10/16 09:24:49;;;;;;;10.00;6.50;;;;;;;19.06;50.53;100642.12;117575;1182;23562;-89
2021/10/16 09:27:19;;;;;;;10.40;6.70;;;;;;;19.12;50.49;100638.09;117626;1182;23704;-88
2021/10/16 09:29:50;;;;;;;10.70;7.10;;;;;;;19.17;50.51;100634.52;117643;1182;22724;-88
2021/10/16 09:32:21;;;;;;;9.50;7.10;;;;;;;19.19;50.48;100630.89;117463;1187;21880;-88
2021/10/16 09:34:57;;;;;;;9.50;6.70;;;;;;;19.21;50.34;100632.00;117495;1186;21908;-88
2021/10/16 09:37:25;;;;;;;11.70;6.80;;;;;;;19.20;50.34;100627.81;117333;1186;22815;-89
2021/10/16 09:40:00;;;;;;;9.90;6.50;;;;;;;19.16;50.32;100620.48;117500;1182;22695;-89
2021/10/16 09:42:36;;;;;;;10.40;6.90;;;;;;;19.14;50.27;100622.52;117520;1185;23799;-89
2021/10/16 09:45:06;;;;;;;8.60;6.30;;;;;;;19.15;50.31;100623.05;117659;1186;21848;-89
2021/10/16 09:47:35;;;;;;;8.20;5.90;;;;;;;19.15;50.21;100622.89;117651;1185;21854;-88
2021/10/16 09:50:07;;;;;;;9.60;6.80;;;;;;;19.14;50.31;100623.07;117624;1185;21876;-90
2021/10/16 09:52:37;;;;;;;8.50;6.00;;;;;;;19.16;50.13;100621.23;117337;1185;21868;-88
2021/10/16 09:55:06;;;;;;;9.90;6.60;;;;;;;19.18;50.12;100617.23;117418;1188;21863;-89
2021/10/16 09:57:35;;;;;;;8.50;5.80;;;;;;;19.22;50.10;100613.86;117565;1186;21858;-89
2021/10/16 10:00:05;;;;;;;9.00;6.70;;;;;;;19.23;50.20;100614.66;117458;1182;23550;-88
2021/10/16 10:02:33;;;;;;;10.20;6.90;;;;;;;19.27;50.09;100614.34;117731;1185;22910;-90
2021/10/16 10:05:03;;;;;;;7.30;5.70;;;;;;;19.33;50.18;100608.73;117443;1187;21859;-90
2021/10/16 10:07:33;;;;;;;8.90;6.10;;;;;;;19.39;50.15;100609.02;117421;1187;24041;-89
2021/10/16 10:10:02;;;;;;;9.90;6.40;;;;;;;19.43;50.09;100599.02;117606;1185;21879;-88
2021/10/16 10:12:33;;;;;;;8.80;6.50;;;;;;;19.43;50.21;100599.36;117610;1182;23675;-89
2021/10/16 10:15:19;;;;;;;8.90;6.00;;;;;;;19.49;50.13;100599.30;117589;1187;23561;-86
2021/10/16 10:20:58;;;;;;;7.20;5.10;;;;;;;19.62;50.14;100598.86;117657;1186;22622;-88
2021/10/16 10:23:26;;;;;;;9.80;5.10;;;;;;;19.67;50.11;100591.85;117541;1187;21933;-87
2021/10/16 10:26:30;;;;;;;8.20;5.70;;;;;;;19.72;50.05;100588.77;117728;1185;23532;-87
2021/10/16 10:29:04;;;;;;;8.40;5.40;;;;;;;19.74;50.05;100585.84;117703;1185;21878;-88
2021/10/16 10:31:45;;;;;;;7.30;5.30;;;;;;;19.76;50.01;100590.17;117624;1185;23540;-88
2021/10/16 10:34:14;;;;;;;;;;;;;;;19.77;49.98;100592.83;117619;1186;21847;-87
2021/10/16 10:36:49;;;;;;;8.10;5.00;;;;;;;19.76;49.90;100590.70;117515;1182;22921;-88
2021/10/16 10:39:35;;;;;;;6.40;4.80;;;;;;;19.77;49.94;100588.36;117653;1184;21847;-87
2021/10/16 10:42:12;;;;;;;8.00;5.00;;;;;;;19.76;49.90;100588.92;117705;1185;21916;-89
2021/10/16 10:44:41;;;;;;;8.20;5.30;;;;;;;19.77;49.84;100588.20;117646;1185;24728;-89
2021/10/16 10:47:26;;;;;;;6.40;4.30;;;;;;;19.75;49.75;100585.77;117723;1182;22731;-88
2021/10/16 10:49:55;;;;;;;8.50;5.10;;;;;;;19.74;49.80;100585.48;117495;1186;21867;-89
2021/10/16 10:52:26;;;;;;;10.50;6.70;;;;;;;19.76;49.80;100589.67;117691;1182;22893;-89
2021/10/16 10:55:07;;;;;;;8.40;5.80;;;;;;;19.77;49.72;100589.97;117668;1182;21883;-89
2021/10/16 10:57:59;;;;;;;8.30;5.50;;;;;;;19.78;49.64;100588.15;117826;1186;21881;-87
2021/10/16 11:00:29;;;;;;;8.00;5.30;;;;;;;19.81;49.69;100589.80;117704;1176;23459;-88
2021/10/16 11:02:58;;;;;;;8.80;5.70;;;;;;;19.84;49.65;100581.61;117657;1185;23804;-88
2021/10/16 11:05:35;;;;;;;7.60;5.10;;;;;;;19.87;49.54;100580.41;117544;1188;23107;-87
2021/10/16 11:08:12;;;;;;;7.50;4.80;;;;;;;19.90;49.56;100577.98;117670;1182;21860;-88
2021/10/16 11:10:42;;;;;;;12.50;8.30;;;;;;;19.92;49.56;100576.11;117824;1179;21860;-88
2021/10/16 11:13:20;;;;;;;8.50;6.10;;;;;;;19.96;49.45;100576.85;117532;1183;22248;-89
2021/10/16 11:15:56;;;;;;;7.90;5.50;;;;;;;19.97;49.46;100570.69;117617;1186;21865;-89
2021/10/16 11:18:25;;;;;;;7.30;5.00;;;;;;;20.01;49.40;100569.81;117784;1182;22250;-89
2021/10/16 11:20:54;;;;;;;7.90;4.90;;;;;;;20.05;49.41;100566.23;117894;1185;23638;-89